createdAt,value
2019-03-24T00:00:59.593Z,6.57
2019-03-24T00:03:30.705Z,6.23
2019-03-24T00:06:01.777Z,7.10
2019-03-24T00:08:32.818Z,6.23
2019-03-24T00:11:02.977Z,6.33
2019-03-24T00:13:33.173Z,6.37
2019-03-24T00:16:04.509Z,7.20
2019-03-24T00:18:34.413Z,6.77
2019-03-24T00:21:04.861Z,6.93
2019-03-24T00:23:34.789Z,6.37
2019-03-24T00:26:05.517Z,7.37
2019-03-24T00:28:37.897Z,6.67
2019-03-24T00:31:08.627Z,7.07
2019-03-24T00:33:42.521Z,7.10
2019-03-24T00:36:12.890Z,6.53
2019-03-24T00:38:44.061Z,6.67
2019-03-24T00:41:14.133Z,6.80
2019-03-24T00:43:44.009Z,5.90
2019-03-24T00:46:15.698Z,7.13
2019-03-24T00:48:46.486Z,6.47
2019-03-24T00:51:17.518Z,6.93
2019-03-24T00:54:07.798Z,6.57
2019-03-24T00:56:40.301Z,6.67
2019-03-24T00:59:10.893Z,6.10
2019-03-24T01:01:42.762Z,7.50
2019-03-24T01:04:15.065Z,6.43
2019-03-24T01:06:45.222Z,6.50
2019-03-24T01:09:17.332Z,6.67
2019-03-24T01:11:49.192Z,5.93
2019-03-24T01:14:18.857Z,5.67
2019-03-24T01:16:51.437Z,6.43
2019-03-24T01:19:26.694Z,6.93
2019-03-24T01:22:01.062Z,6.07
2019-03-24T01:24:32.077Z,6.57
2019-03-24T01:27:02.067Z,6.83
2019-03-24T01:29:32.807Z,7.40
2019-03-24T01:32:03.805Z,6.63
2019-03-24T01:34:34.660Z,6.67
2019-03-24T01:37:07.765Z,6.33
2019-03-24T01:39:39.285Z,7.07
2019-03-24T01:42:10.423Z,7.03
2019-03-24T01:44:41.583Z,6.70
2019-03-24T01:47:12.706Z,7.17
2019-03-24T01:49:44.755Z,6.70
2019-03-24T01:52:16.161Z,7.13
2019-03-24T01:54:48.043Z,7.20
2019-03-24T01:57:18.200Z,7.57
2019-03-24T01:59:49.137Z,7.87
2019-03-24T02:02:21.117Z,7.60
2019-03-24T02:04:52.761Z,7.57
2019-03-24T02:07:26.632Z,7.17
2019-03-24T02:09:57.870Z,7.20
2019-03-24T02:12:29.703Z,8.60
2019-03-24T02:15:02.255Z,8.03
2019-03-24T02:17:32.005Z,7.87
2019-03-24T02:20:01.839Z,8.40
2019-03-24T02:22:31.969Z,8.43
2019-03-24T02:25:02.793Z,8.27
2019-03-24T02:27:34.085Z,8.63
2019-03-24T02:30:06.242Z,9.10
2019-03-24T02:32:37.342Z,8.93
2019-03-24T02:35:09.016Z,8.70
2019-03-24T02:37:39.427Z,9.17
2019-03-24T02:40:12.322Z,8.90
2019-03-24T02:42:42.528Z,8.67
2019-03-24T02:45:13.139Z,9.50
2019-03-24T02:47:45.985Z,9.07
2019-03-24T02:50:16.909Z,9.20
2019-03-24T02:52:51.006Z,9.20
2019-03-24T02:55:21.238Z,9.13
2019-03-24T02:57:53.558Z,8.80
2019-03-24T03:00:23.930Z,8.70
2019-03-24T03:02:56.415Z,8.60
2019-03-24T03:05:27.260Z,8.33
2019-03-24T03:07:57.038Z,8.33
2019-03-24T03:10:27.119Z,8.47
2019-03-24T03:12:58.200Z,9.60
2019-03-24T03:15:28.546Z,8.50
2019-03-24T03:17:59.686Z,8.70
2019-03-24T03:20:30.518Z,8.53
2019-03-24T03:23:05.067Z,8.00
2019-03-24T03:25:35.842Z,8.13
2019-03-24T03:28:07.260Z,7.83
2019-03-24T03:30:36.963Z,8.07
2019-03-24T03:33:09.015Z,7.77
2019-03-24T03:35:40.943Z,8.30
2019-03-24T03:38:10.834Z,8.73
2019-03-24T03:40:42.119Z,7.97
2019-03-24T03:43:13.898Z,7.83
2019-03-24T03:45:43.987Z,8.10
2019-03-24T03:48:13.980Z,8.00
2019-03-24T03:50:45.029Z,8.53
2019-03-24T03:53:16.992Z,8.10
2019-03-24T03:55:47.906Z,7.77
2019-03-24T03:58:19.894Z,7.33
2019-03-24T04:00:50.235Z,8.07
2019-03-24T04:03:21.257Z,7.90
2019-03-24T04:05:52.536Z,7.67
2019-03-24T04:08:23.814Z,7.03
2019-03-24T04:10:57.144Z,6.73
2019-03-24T04:13:28.254Z,7.03
2019-03-24T04:15:58.363Z,7.03
2019-03-24T04:18:31.923Z,7.30
2019-03-24T04:21:02.012Z,5.97
2019-03-24T04:23:32.189Z,6.63
2019-03-24T04:26:02.482Z,6.97
2019-03-24T04:28:33.151Z,7.17
2019-03-24T04:31:02.889Z,6.60
2019-03-24T04:33:33.066Z,6.47
2019-03-24T04:36:03.566Z,6.67
2019-03-24T04:38:33.833Z,7.00
2019-03-24T04:41:05.042Z,6.20
2019-03-24T04:43:36.205Z,7.00
2019-03-24T04:46:07.420Z,6.40
2019-03-24T04:48:37.501Z,7.33
2019-03-24T04:51:07.825Z,6.90
2019-03-24T04:53:38.837Z,6.27
2019-03-24T04:56:09.985Z,6.40
2019-03-24T04:58:40.820Z,6.67
2019-03-24T05:01:10.874Z,6.50
2019-03-24T05:03:40.930Z,6.80
2019-03-24T05:06:11.370Z,5.70
2019-03-24T05:08:42.198Z,6.50
2019-03-24T05:11:13.321Z,5.97
2019-03-24T05:13:44.005Z,5.87
2019-03-24T05:16:18.054Z,5.43
2019-03-24T05:18:49.165Z,6.03
2019-03-24T05:21:20.845Z,5.80
2019-03-24T05:23:52.665Z,5.17
2019-03-24T05:26:23.010Z,5.77
2019-03-24T05:28:52.937Z,6.20
2019-03-24T05:31:25.338Z,5.10
2019-03-24T05:33:58.445Z,5.57
2019-03-24T05:36:28.053Z,5.60
2019-03-24T05:39:00.454Z,5.57
2019-03-24T05:41:30.353Z,5.53
2019-03-24T05:44:02.336Z,5.47
2019-03-24T05:46:33.006Z,5.07
2019-03-24T05:49:04.073Z,5.97
2019-03-24T05:51:35.013Z,5.30
2019-03-24T05:54:07.358Z,5.30
2019-03-24T05:56:39.160Z,5.43
2019-03-24T05:59:10.144Z,4.93
2019-03-24T06:01:41.013Z,5.43
2019-03-24T06:04:11.049Z,6.17
2019-03-24T06:06:40.866Z,5.70
2019-03-24T06:09:11.901Z,5.67
2019-03-24T06:11:44.711Z,6.00
2019-03-24T06:14:15.724Z,5.43
2019-03-24T06:16:46.668Z,6.47
2019-03-24T06:19:19.473Z,5.37
2019-03-24T06:21:52.109Z,5.00
2019-03-24T06:24:24.691Z,5.47
2019-03-24T06:26:54.657Z,5.47
2019-03-24T06:29:24.525Z,5.63
2019-03-24T06:31:54.945Z,6.00
2019-03-24T06:34:26.835Z,6.23
2019-03-24T06:36:57.232Z,5.50
2019-03-24T06:39:31.815Z,6.17
2019-03-24T06:42:01.994Z,5.70
2019-03-24T06:44:33.114Z,6.33
2019-03-24T06:47:07.141Z,6.53
2019-03-24T06:49:38.868Z,6.50
2019-03-24T06:52:09.041Z,6.63
2019-03-24T06:54:39.262Z,6.00
2019-03-24T06:57:09.989Z,6.23
2019-03-24T06:59:40.717Z,6.27
2019-03-24T07:02:11.954Z,6.63
2019-03-24T07:04:45.141Z,7.20
2019-03-24T07:07:15.363Z,6.70
2019-03-24T07:09:46.604Z,6.53
2019-03-24T07:12:17.737Z,6.70
2019-03-24T07:14:49.875Z,6.90
2019-03-24T07:17:19.696Z,6.50
2019-03-24T07:19:49.688Z,6.27
2019-03-24T07:22:20.314Z,6.87
2019-03-24T07:24:51.002Z,5.90
2019-03-24T07:27:21.185Z,6.57
2019-03-24T07:29:52.925Z,5.90
2019-03-24T07:32:24.055Z,6.03
2019-03-24T07:34:54.832Z,5.90
2019-03-24T07:37:24.605Z,6.00
2019-03-24T07:39:55.314Z,6.67
2019-03-24T07:42:25.107Z,6.90
2019-03-24T07:44:58.309Z,6.87
2019-03-24T07:47:29.081Z,6.37
2019-03-24T07:49:58.829Z,6.60
2019-03-24T07:52:28.910Z,6.50
2019-03-24T07:54:59.849Z,6.93
2019-03-24T07:57:30.449Z,6.37
2019-03-24T08:00:01.473Z,7.43
2019-03-24T08:02:32.938Z,7.23
2019-03-24T08:05:03.253Z,7.63
2019-03-24T08:07:33.313Z,7.27
2019-03-24T08:10:04.997Z,9.00
2019-03-24T08:12:35.742Z,8.50
2019-03-24T08:15:06.477Z,7.50
2019-03-24T08:17:37.148Z,8.13
2019-03-24T08:20:07.883Z,8.47
2019-03-24T08:22:38.804Z,7.50
2019-03-24T08:25:10.235Z,7.20
2019-03-24T08:27:41.096Z,7.33
2019-03-24T08:30:11.565Z,7.50
2019-03-24T08:32:42.401Z,7.87
2019-03-24T08:35:13.664Z,9.03
2019-03-24T08:37:43.834Z,8.87
2019-03-24T08:40:14.245Z,8.03
2019-03-24T08:42:45.937Z,9.33
2019-03-24T08:45:18.953Z,9.17
2019-03-24T08:47:49.871Z,7.83
2019-03-24T08:50:22.694Z,8.70
2019-03-24T08:52:53.778Z,8.73
2019-03-24T08:55:24.617Z,7.63
2019-03-24T08:57:56.069Z,8.27
2019-03-24T09:00:30.780Z,9.00
2019-03-24T09:02:59.801Z,8.43
2019-03-24T09:05:33.557Z,8.70
2019-03-24T09:08:04.150Z,8.47
2019-03-24T09:10:34.897Z,8.40
2019-03-24T09:13:07.093Z,7.67
2019-03-24T09:15:40.074Z,7.60
2019-03-24T09:18:09.977Z,7.40
2019-03-24T09:20:41.808Z,7.40
2019-03-24T09:23:12.801Z,6.17
2019-03-24T09:25:44.640Z,6.63
2019-03-24T09:28:15.382Z,6.60
2019-03-24T09:30:45.139Z,5.97
2019-03-24T09:33:15.964Z,6.07
2019-03-24T09:35:46.692Z,5.87
2019-03-24T09:38:17.842Z,5.53
2019-03-24T09:40:48.527Z,6.03
2019-03-24T09:43:18.343Z,5.40
2019-03-24T09:45:49.250Z,5.83
2019-03-24T09:48:20.288Z,6.07
2019-03-24T09:50:52.129Z,5.97
2019-03-24T09:53:23.129Z,6.60
2019-03-24T09:55:55.880Z,6.13
2019-03-24T09:58:25.606Z,6.77
2019-03-24T10:00:56.257Z,5.80
2019-03-24T10:03:28.998Z,6.87
2019-03-24T10:06:00.199Z,7.00
2019-03-24T10:08:32.846Z,6.77
2019-03-24T10:11:02.598Z,6.60
2019-03-24T10:13:33.409Z,6.10
2019-03-24T10:16:05.993Z,6.10
2019-03-24T10:18:36.312Z,6.27
2019-03-24T10:21:06.504Z,6.50
2019-03-24T10:23:36.496Z,5.97
2019-03-24T10:26:06.306Z,5.87
2019-03-24T10:28:39.013Z,5.67
2019-03-24T10:31:09.177Z,8.20
2019-03-24T10:33:40.133Z,9.60
2019-03-24T10:36:09.893Z,8.37
2019-03-24T10:38:39.973Z,8.50
2019-03-24T10:41:10.902Z,8.27
2019-03-24T10:43:40.688Z,6.90
2019-03-24T10:46:11.946Z,6.50
2019-03-24T10:48:43.187Z,6.77
2019-03-24T10:51:15.887Z,6.57
2019-03-24T10:53:46.747Z,8.33
2019-03-24T10:56:16.479Z,8.50
2019-03-24T10:58:47.815Z,8.87
2019-03-24T11:01:18.943Z,8.60
2019-03-24T11:03:52.103Z,8.50
2019-03-24T11:06:29.931Z,8.27
2019-03-24T11:09:01.123Z,10.37
2019-03-24T11:11:33.306Z,12.77
2019-03-24T11:14:03.505Z,9.80
2019-03-24T11:16:35.939Z,9.97
2019-03-24T11:19:07.805Z,10.20
2019-03-24T11:21:37.565Z,8.57
2019-03-24T11:24:09.139Z,8.73
2019-03-24T11:26:38.899Z,8.63
2019-03-24T11:29:09.509Z,8.77
2019-03-24T11:31:40.227Z,9.00
2019-03-24T11:34:10.009Z,8.23
2019-03-24T11:36:40.098Z,7.10
2019-03-24T11:39:11.209Z,7.67
2019-03-24T11:41:42.688Z,7.67
2019-03-24T11:44:14.647Z,6.97
2019-03-24T11:46:44.441Z,6.00
2019-03-24T11:49:16.510Z,5.87
2019-03-24T11:51:45.777Z,5.70
2019-03-24T11:54:15.554Z,5.40
2019-03-24T11:56:46.257Z,6.00
2019-03-24T11:59:18.150Z,6.97
2019-03-24T12:01:49.357Z,5.60
2019-03-24T12:04:20.228Z,4.97
2019-03-24T12:06:50.817Z,4.30
2019-03-24T12:09:21.557Z,4.37
2019-03-24T12:11:52.681Z,4.23
2019-03-24T12:14:22.831Z,4.43
2019-03-24T12:16:55.237Z,4.07
2019-03-24T12:19:26.697Z,4.27
2019-03-24T12:21:57.517Z,4.17
2019-03-24T12:24:28.133Z,4.20
2019-03-24T12:27:00.025Z,4.47
2019-03-24T12:29:32.842Z,3.53
2019-03-24T12:32:04.043Z,4.70
2019-03-24T12:34:34.877Z,4.03
2019-03-24T12:37:06.334Z,4.00
2019-03-24T12:39:36.626Z,3.07
2019-03-24T12:42:08.325Z,3.30
2019-03-24T12:44:40.085Z,3.07
2019-03-24T12:47:11.822Z,3.27
2019-03-24T12:49:41.608Z,3.47
2019-03-24T12:52:13.351Z,3.43
2019-03-24T12:54:43.491Z,4.27
2019-03-24T12:57:14.630Z,3.93
2019-03-24T12:59:44.797Z,4.20
2019-03-24T13:02:15.533Z,3.30
2019-03-24T13:04:46.628Z,3.30
2019-03-24T13:07:17.766Z,3.33
2019-03-24T13:09:47.677Z,3.73
2019-03-24T13:12:18.382Z,3.20
2019-03-24T13:14:49.820Z,3.40
2019-03-24T13:17:19.723Z,3.53
2019-03-24T13:19:49.803Z,4.07
2019-03-24T13:22:19.569Z,4.20
2019-03-24T13:24:49.785Z,3.97
2019-03-24T13:27:19.685Z,4.50
2019-03-24T13:29:51.112Z,3.80
2019-03-24T13:32:21.014Z,4.13
2019-03-24T13:34:53.424Z,4.20
2019-03-24T13:37:24.106Z,3.70
2019-03-24T13:39:54.821Z,4.17
2019-03-24T13:42:26.253Z,3.97
2019-03-24T13:44:57.310Z,3.70
2019-03-24T13:47:29.168Z,3.20
2019-03-24T13:50:01.042Z,3.80
2019-03-24T13:52:30.837Z,3.53
2019-03-24T13:55:00.609Z,3.77
2019-03-24T13:57:31.447Z,3.20
2019-03-24T14:00:01.675Z,3.27
2019-03-24T14:02:33.708Z,3.37
2019-03-24T14:05:03.787Z,4.20
2019-03-24T14:07:34.546Z,4.40
2019-03-24T14:10:08.279Z,3.37
2019-03-24T14:12:38.163Z,4.10
2019-03-24T14:15:10.208Z,3.40
2019-03-24T14:17:43.796Z,3.27
2019-03-24T14:20:15.023Z,3.10
2019-03-24T14:22:46.341Z,3.57
2019-03-24T14:25:18.981Z,4.00
2019-03-24T14:27:48.733Z,3.33
2019-03-24T14:30:22.807Z,3.87
2019-03-24T14:32:53.627Z,3.80
2019-03-24T14:35:24.331Z,3.80
2019-03-24T14:37:57.066Z,3.23
2019-03-24T14:40:26.822Z,3.47
2019-03-24T14:42:57.633Z,3.23
2019-03-24T14:45:28.393Z,3.70
2019-03-24T14:47:58.546Z,3.43
2019-03-24T14:50:31.093Z,3.33
2019-03-24T14:53:03.731Z,3.70
2019-03-24T14:55:34.797Z,3.50
2019-03-24T14:58:05.974Z,3.50
2019-03-24T15:00:37.789Z,3.70
2019-03-24T15:03:09.011Z,3.60
2019-03-24T15:05:43.055Z,2.80
2019-03-24T15:08:14.318Z,3.43
2019-03-24T15:10:47.818Z,3.30
2019-03-24T15:13:18.586Z,3.37
2019-03-24T15:15:48.661Z,3.53
2019-03-24T15:18:18.878Z,3.10
2019-03-24T15:20:49.733Z,3.50
2019-03-24T15:23:20.413Z,2.73
2019-03-24T15:25:49.698Z,3.10
2019-03-24T15:28:22.512Z,3.10
2019-03-24T15:30:53.713Z,3.00
2019-03-24T15:33:26.357Z,2.53
2019-03-24T15:35:55.578Z,2.53
2019-03-24T15:38:25.602Z,2.63
2019-03-24T15:40:56.803Z,2.80
2019-03-24T15:43:28.655Z,2.77
2019-03-24T15:45:58.364Z,2.77
2019-03-24T15:48:29.009Z,3.53
2019-03-24T15:50:59.054Z,3.43
2019-03-24T15:53:32.935Z,3.40
2019-03-24T15:56:03.662Z,2.63
2019-03-24T15:58:33.425Z,2.77
2019-03-24T16:01:03.498Z,3.00
2019-03-24T16:03:33.381Z,3.10
2019-03-24T16:06:03.481Z,3.40
2019-03-24T16:08:34.405Z,3.30
2019-03-24T16:11:04.184Z,3.53
2019-03-24T16:13:36.141Z,3.73
2019-03-24T16:16:07.014Z,3.40
2019-03-24T16:18:39.439Z,3.97
2019-03-24T16:21:10.489Z,3.60
2019-03-24T16:23:41.667Z,4.10
2019-03-24T16:26:11.542Z,3.40
2019-03-24T16:28:42.176Z,3.53
2019-03-24T16:31:13.694Z,3.90
2019-03-24T16:33:43.899Z,3.63
2019-03-24T16:36:15.057Z,3.93
2019-03-24T16:38:49.091Z,4.03
2019-03-24T16:41:18.704Z,4.10
2019-03-24T16:43:50.169Z,3.70
2019-03-24T16:46:21.174Z,4.20
2019-03-24T16:48:54.925Z,3.80
2019-03-24T16:51:25.825Z,4.73
2019-03-24T16:53:55.918Z,4.33
2019-03-24T16:56:26.769Z,3.77
2019-03-24T16:58:58.391Z,4.33
2019-03-24T17:01:29.047Z,3.93
2019-03-24T17:03:59.297Z,4.60
2019-03-24T17:06:29.471Z,3.63
2019-03-24T17:09:02.065Z,3.77
2019-03-24T17:11:33.063Z,3.60
2019-03-24T17:14:03.869Z,4.00
2019-03-24T17:16:34.552Z,5.17
2019-03-24T17:19:03.540Z,3.80
2019-03-24T17:21:33.609Z,4.10
2019-03-24T17:24:03.806Z,4.00
2019-03-24T17:26:33.703Z,3.40
2019-03-24T17:29:04.747Z,3.23
2019-03-24T17:31:35.889Z,3.13
2019-03-24T17:34:06.701Z,3.10
2019-03-24T17:36:36.465Z,3.50
2019-03-24T17:39:09.164Z,3.10
2019-03-24T17:41:41.493Z,3.00
2019-03-24T17:44:17.126Z,3.23
2019-03-24T17:46:46.877Z,3.43
2019-03-24T17:49:16.757Z,3.67
2019-03-24T17:51:47.500Z,3.10
2019-03-24T17:54:18.514Z,3.60
2019-03-24T17:56:48.691Z,3.73
2019-03-24T17:59:19.750Z,3.10
2019-03-24T18:01:49.517Z,3.23
2019-03-24T18:04:24.520Z,5.07
2019-03-24T18:06:56.111Z,3.00
2019-03-24T18:09:28.385Z,3.20
2019-03-24T18:12:00.881Z,3.30
2019-03-24T18:14:33.325Z,3.60
2019-03-24T18:17:04.365Z,3.73
2019-03-24T18:19:34.366Z,4.13
2019-03-24T18:22:11.266Z,3.53
2019-03-24T18:24:35.101Z,3.53
2019-03-24T18:27:05.253Z,2.87
2019-03-24T18:29:36.381Z,2.73
2019-03-24T18:32:07.848Z,2.67
2019-03-24T18:34:37.742Z,3.00
2019-03-24T18:37:10.105Z,2.83
2019-03-24T18:39:43.056Z,3.10
2019-03-24T18:42:14.215Z,3.33
2019-03-24T18:44:45.397Z,3.20
2019-03-24T18:47:16.422Z,2.50
2019-03-24T18:49:47.268Z,3.57
2019-03-24T18:52:22.622Z,3.60
2019-03-24T18:54:52.808Z,4.00
2019-03-24T18:57:23.542Z,3.77
2019-03-24T18:59:54.653Z,3.33
2019-03-24T19:02:24.774Z,3.67
2019-03-24T19:04:54.621Z,4.57
2019-03-24T19:07:26.622Z,5.40
2019-03-24T19:09:57.401Z,3.80
2019-03-24T19:12:28.853Z,5.27
2019-03-24T19:15:00.015Z,3.90
2019-03-24T19:17:30.893Z,4.13
2019-03-24T19:20:01.683Z,3.20
2019-03-24T19:22:33.744Z,3.23
2019-03-24T19:25:04.957Z,3.77
2019-03-24T19:27:37.796Z,3.50
2019-03-24T19:30:16.494Z,3.47
2019-03-24T19:32:46.947Z,3.73
2019-03-24T19:35:18.565Z,3.67
2019-03-24T19:37:50.949Z,3.83
2019-03-24T19:40:29.371Z,3.83
2019-03-24T19:42:59.133Z,3.60
2019-03-24T19:45:29.200Z,3.50
2019-03-24T19:48:00.249Z,4.17
2019-03-24T19:50:33.713Z,3.20
2019-03-24T19:53:04.490Z,3.93
2019-03-24T19:55:34.670Z,3.60
2019-03-24T19:58:07.829Z,3.70
2019-03-24T20:00:38.210Z,3.70
2019-03-24T20:03:09.555Z,3.60
2019-03-24T20:05:41.005Z,3.33
2019-03-24T20:08:12.167Z,3.60
2019-03-24T20:10:42.045Z,18.30
2019-03-24T20:13:12.785Z,5.47
2019-03-24T20:15:43.715Z,3.80
2019-03-24T20:18:13.980Z,3.40
2019-03-24T20:20:44.183Z,4.07
2019-03-24T20:23:15.311Z,3.53
2019-03-24T20:25:47.061Z,4.20
2019-03-24T20:28:17.898Z,3.90
2019-03-24T20:30:47.681Z,3.90
2019-03-24T20:33:20.423Z,3.37
2019-03-24T20:35:50.679Z,4.03
2019-03-24T20:38:23.234Z,4.07
2019-03-24T20:40:54.228Z,4.00
2019-03-24T20:43:27.027Z,3.90
2019-03-24T20:45:57.738Z,4.30
2019-03-24T20:48:29.189Z,3.63
2019-03-24T20:51:00.313Z,3.60
2019-03-24T20:53:33.706Z,4.87
2019-03-24T20:56:03.949Z,4.27
2019-03-24T20:58:34.113Z,4.10
2019-03-24T21:01:04.144Z,4.50
2019-03-24T21:03:35.262Z,4.60
2019-03-24T21:06:05.510Z,4.20
2019-03-24T21:08:36.741Z,4.30
2019-03-24T21:11:07.542Z,4.10
2019-03-24T21:13:37.313Z,4.23
2019-03-24T21:16:10.697Z,4.40
2019-03-24T21:18:41.530Z,4.63
2019-03-24T21:21:14.342Z,4.80
2019-03-24T21:23:48.517Z,4.43
2019-03-24T21:26:19.673Z,3.87
2019-03-24T21:28:50.949Z,4.93
2019-03-24T21:31:24.071Z,4.60
2019-03-24T21:33:54.875Z,4.50
2019-03-24T21:36:29.269Z,4.63
2019-03-24T21:39:00.365Z,4.00
2019-03-24T21:41:34.246Z,5.13
2019-03-24T21:44:04.451Z,4.93
2019-03-24T21:46:35.252Z,4.27
2019-03-24T21:49:07.977Z,4.40
2019-03-24T21:51:38.261Z,4.30
2019-03-24T21:54:09.314Z,4.73
2019-03-24T21:56:40.375Z,4.40
2019-03-24T21:59:10.311Z,5.00
2019-03-24T22:01:41.259Z,4.30
2019-03-24T22:04:13.649Z,4.57
2019-03-24T22:06:45.009Z,4.83
2019-03-24T22:09:16.879Z,4.70
2019-03-24T22:11:47.043Z,4.87
2019-03-24T22:14:17.366Z,4.93
2019-03-24T22:16:48.093Z,4.90
2019-03-24T22:19:19.061Z,4.00
2019-03-24T22:21:52.761Z,4.20
2019-03-24T22:24:25.641Z,4.40
2019-03-24T22:26:56.365Z,5.40
2019-03-24T22:29:26.166Z,5.03
2019-03-24T22:31:58.627Z,6.10
2019-03-24T22:34:29.798Z,6.10
2019-03-24T22:37:00.674Z,6.80
2019-03-24T22:39:30.025Z,7.73
2019-03-24T22:42:00.677Z,8.40
2019-03-24T22:44:31.965Z,9.27
2019-03-24T22:47:01.819Z,9.47
2019-03-24T22:49:32.533Z,9.77
2019-03-24T22:52:07.417Z,9.40
2019-03-24T22:54:37.239Z,8.97
2019-03-24T22:57:06.997Z,9.93
2019-03-24T22:59:38.034Z,7.63
2019-03-24T23:02:08.209Z,6.50
2019-03-24T23:04:39.051Z,5.57
2019-03-24T23:07:08.825Z,5.97
2019-03-24T23:09:38.901Z,6.23
2019-03-24T23:12:09.732Z,6.37
2019-03-24T23:14:39.826Z,5.40
2019-03-24T23:17:09.961Z,5.40
2019-03-24T23:19:43.942Z,5.20
2019-03-24T23:22:15.129Z,4.20
2019-03-24T23:24:46.089Z,4.50
2019-03-24T23:27:17.161Z,5.67
2019-03-24T23:29:49.041Z,4.97
2019-03-24T23:32:20.101Z,4.70
2019-03-24T23:34:52.501Z,4.93
2019-03-24T23:37:23.223Z,4.80
2019-03-24T23:39:54.550Z,4.53
2019-03-24T23:42:27.113Z,4.90
2019-03-24T23:44:58.078Z,4.67
2019-03-24T23:47:30.333Z,3.97
2019-03-24T23:50:03.021Z,4.37
2019-03-24T23:52:32.837Z,4.87
2019-03-24T23:55:02.513Z,4.50
2019-03-24T23:57:31.813Z,4.70
